sensor_id;sensor_type;location;lat;lon;timestamp;pressure;altitude;pressure_sealevel;temperature;humidity
56334;BME280;42240;53.626;55.886;2022-09-25T00:00:24;75232.19;;;-145.10;92.84
56334;BME280;42240;53.626;55.886;2022-09-25T00:01:57;75228.22;;;-145.10;92.96
56334;BME280;42240;53.626;55.886;2022-09-25T00:03:30;75224.28;;;-145.10;92.96
56334;BME280;42240;53.626;55.886;2022-09-25T00:05:03;75228.22;;;-145.10;92.56
56334;BME280;42240;53.626;55.886;2022-09-25T00:06:36;75218.34;;;-145.10;92.70
56334;BME280;42240;53.626;55.886;2022-09-25T00:08:10;75216.38;;;-145.10;92.29
56334;BME280;42240;53.626;55.886;2022-09-25T00:09:43;75220.31;;;-145.10;92.05
56334;BME280;42240;53.626;55.886;2022-09-25T00:11:20;75216.38;;;-145.10;92.01
56334;BME280;42240;53.626;55.886;2022-09-25T00:12:52;75208.47;;;-145.10;91.85
56334;BME280;42240;53.626;55.886;2022-09-25T00:14:25;75208.47;;;-145.10;92.18
56334;BME280;42240;53.626;55.886;2022-09-25T00:15:58;75202.53;;;-145.10;92.26
56334;BME280;42240;53.626;55.886;2022-09-25T00:17:31;75190.66;;;-145.10;92.15
56334;BME280;42240;53.626;55.886;2022-09-25T00:19:05;75192.63;;;-145.10;92.09
56334;BME280;42240;53.626;55.886;2022-09-25T00:20:59;75190.66;;;-145.10;92.34
56334;BME280;42240;53.626;55.886;2022-09-25T00:22:32;75184.72;;;-145.10;92.11
56334;BME280;42240;53.626;55.886;2022-09-25T00:24:06;75184.72;;;-145.10;92.07
56334;BME280;42240;53.626;55.886;2022-09-25T00:25:39;75176.81;;;-145.10;91.93
56334;BME280;42240;53.626;55.886;2022-09-25T00:27:11;75164.97;;;-145.10;91.79
56334;BME280;42240;53.626;55.886;2022-09-25T00:28:44;75161.00;;;-145.10;91.33
56334;BME280;42240;53.626;55.886;2022-09-25T00:30:17;75155.09;;;-145.10;91.20
56334;BME280;42240;53.626;55.886;2022-09-25T00:31:49;75149.16;;;-145.10;91.16
56334;BME280;42240;53.626;55.886;2022-09-25T00:33:22;75141.25;;;-145.10;90.89
56334;BME280;42240;53.626;55.886;2022-09-25T00:34:55;75133.34;;;-145.10;90.83
56334;BME280;42240;53.626;55.886;2022-09-25T00:36:29;75131.38;;;-145.10;90.63
56334;BME280;42240;53.626;55.886;2022-09-25T00:38:02;75133.34;;;-145.10;90.50
56334;BME280;42240;53.626;55.886;2022-09-25T00:39:35;75125.44;;;-145.10;90.12
56334;BME280;42240;53.626;55.886;2022-09-25T00:41:08;75131.38;;;-145.10;90.17
56334;BME280;42240;53.626;55.886;2022-09-25T00:42:40;75135.31;;;-145.10;90.21
56334;BME280;42240;53.626;55.886;2022-09-25T00:46:15;75125.44;;;-145.10;89.89
56334;BME280;42240;53.626;55.886;2022-09-25T00:47:59;75115.56;;;-145.10;89.61
56334;BME280;42240;53.626;55.886;2022-09-25T00:49:34;75113.56;;;-145.10;89.69
56334;BME280;42240;53.626;55.886;2022-09-25T00:51:06;75115.56;;;-145.10;89.54
56334;BME280;42240;53.626;55.886;2022-09-25T00:52:39;75109.63;;;-145.10;89.40
56334;BME280;42240;53.626;55.886;2022-09-25T00:54:13;75105.66;;;-145.10;89.43
56334;BME280;42240;53.626;55.886;2022-09-25T00:55:47;75105.66;;;-145.10;89.37
56334;BME280;42240;53.626;55.886;2022-09-25T00:57:21;75078.00;;;-145.10;89.09
56334;BME280;42240;53.626;55.886;2022-09-25T00:58:57;75078.00;;;-145.10;88.88
56334;BME280;42240;53.626;55.886;2022-09-25T01:00:30;75064.16;;;-145.10;88.67
56334;BME280;42240;53.626;55.886;2022-09-25T01:02:04;75064.16;;;-145.10;88.51
56334;BME280;42240;53.626;55.886;2022-09-25T01:03:39;75066.13;;;-145.10;88.60
56334;BME280;42240;53.626;55.886;2022-09-25T01:05:17;75058.22;;;-145.10;88.81
56334;BME280;42240;53.626;55.886;2022-09-25T01:06:50;75058.22;;;-145.10;88.69
56334;BME280;42240;53.626;55.886;2022-09-25T01:08:24;75046.38;;;-145.10;88.35
56334;BME280;42240;53.626;55.886;2022-09-25T01:09:59;75046.38;;;-145.10;88.22
56334;BME280;42240;53.626;55.886;2022-09-25T01:11:33;75042.41;;;-145.10;88.24
56334;BME280;42240;53.626;55.886;2022-09-25T01:13:06;75070.09;;;-145.10;88.12
56334;BME280;42240;53.626;55.886;2022-09-25T01:14:39;75046.38;;;-145.10;88.03
56334;BME280;42240;53.626;55.886;2022-09-25T01:21:14;75050.31;;;-145.10;87.79
56334;BME280;42240;53.626;55.886;2022-09-25T01:31:45;75046.38;;;-145.10;87.43
56334;BME280;42240;53.626;55.886;2022-09-25T01:33:30;75036.47;;;-145.10;87.22
56334;BME280;42240;53.626;55.886;2022-09-25T01:35:16;75030.56;;;-145.10;87.11
56334;BME280;42240;53.626;55.886;2022-09-25T01:36:52;75018.69;;;-145.10;86.90
56334;BME280;42240;53.626;55.886;2022-09-25T01:38:33;75024.63;;;-145.10;86.51
56334;BME280;42240;53.626;55.886;2022-09-25T01:43:19;75014.75;;;-145.10;85.36
56334;BME280;42240;53.626;55.886;2022-09-25T01:44:58;75006.84;;;-145.10;84.77
56334;BME280;42240;53.626;55.886;2022-09-25T01:46:45;75010.78;;;-145.10;84.57
56334;BME280;42240;53.626;55.886;2022-09-25T01:48:20;74998.94;;;-145.10;83.73
56334;BME280;42240;53.626;55.886;2022-09-25T01:49:55;74994.97;;;-145.10;82.65
56334;BME280;42240;53.626;55.886;2022-09-25T01:51:31;74996.94;;;-145.10;82.94
56334;BME280;42240;53.626;55.886;2022-09-25T01:53:06;74998.94;;;-145.10;83.05
56334;BME280;42240;53.626;55.886;2022-09-25T01:54:41;75002.88;;;-145.10;83.13
56334;BME280;42240;53.626;55.886;2022-09-25T01:58:10;75010.78;;;-145.10;83.70
56334;BME280;42240;53.626;55.886;2022-09-25T01:59:51;75006.84;;;-145.10;83.36
56334;BME280;42240;53.626;55.886;2022-09-25T02:01:28;75004.84;;;-145.10;83.10
56334;BME280;42240;53.626;55.886;2022-09-25T02:03:45;74998.94;;;-145.10;82.99
56334;BME280;42240;53.626;55.886;2022-09-25T02:05:00;74996.94;;;-145.10;82.32
56334;BME280;42240;53.626;55.886;2022-09-25T02:06:36;74989.03;;;-145.10;81.92
56334;BME280;42240;53.626;55.886;2022-09-25T02:08:18;74987.06;;;-145.10;82.09
56334;BME280;42240;53.626;55.886;2022-09-25T02:09:55;74991.03;;;-145.10;82.26
56334;BME280;42240;53.626;55.886;2022-09-25T02:11:30;74989.03;;;-145.10;81.93
56334;BME280;42240;53.626;55.886;2022-09-25T02:13:09;74993.00;;;-145.10;82.14
56334;BME280;42240;53.626;55.886;2022-09-25T02:14:47;74998.94;;;-145.10;82.45
56334;BME280;42240;53.626;55.886;2022-09-25T02:16:21;75006.84;;;-145.10;82.64
56334;BME280;42240;53.626;55.886;2022-09-25T02:18:01;75014.75;;;-145.10;83.33
56334;BME280;42240;53.626;55.886;2022-09-25T02:19:53;75018.69;;;-145.10;83.82
56334;BME280;42240;53.626;55.886;2022-09-25T02:23:24;74994.97;;;-145.10;84.04
56334;BME280;42240;53.626;55.886;2022-09-25T02:27:01;74975.22;;;-145.10;83.06
56334;BME280;42240;53.626;55.886;2022-09-25T02:28:34;74975.22;;;-145.10;83.08
56334;BME280;42240;53.626;55.886;2022-09-25T02:30:07;74967.31;;;-145.10;82.85
56334;BME280;42240;53.626;55.886;2022-09-25T02:33:15;74965.31;;;-145.10;82.15
56334;BME280;42240;53.626;55.886;2022-09-25T02:34:48;74959.41;;;-145.10;82.39
56334;BME280;42240;53.626;55.886;2022-09-25T02:36:21;74955.44;;;-145.10;82.19
56334;BME280;42240;53.626;55.886;2022-09-25T02:37:55;74959.41;;;-145.10;82.08
56334;BME280;42240;53.626;55.886;2022-09-25T02:39:28;74951.50;;;-145.10;81.75
56334;BME280;42240;53.626;55.886;2022-09-25T02:42:58;74943.59;;;-145.10;81.88
56334;BME280;42240;53.626;55.886;2022-09-25T02:46:23;74981.13;;;-145.10;83.21
56334;BME280;42240;53.626;55.886;2022-09-25T02:55:27;74987.06;;;-145.10;84.66
56334;BME280;42240;53.626;55.886;2022-09-25T02:56:46;74996.94;;;-145.10;84.91
56334;BME280;42240;53.626;55.886;2022-09-25T02:58:28;75010.78;;;-145.10;85.20
56334;BME280;42240;53.626;55.886;2022-09-25T03:00:04;75030.56;;;-145.10;85.83
56334;BME280;42240;53.626;55.886;2022-09-25T03:01:38;75022.66;;;-145.10;85.95
56334;BME280;42240;53.626;55.886;2022-09-25T03:03:14;75002.88;;;-145.10;86.10
56334;BME280;42240;53.626;55.886;2022-09-25T03:04:48;74991.03;;;-145.10;85.36
56334;BME280;42240;53.626;55.886;2022-09-25T03:06:22;74979.16;;;-145.10;85.62
56334;BME280;42240;53.626;55.886;2022-09-25T03:07:55;74981.13;;;-145.10;85.59
56334;BME280;42240;53.626;55.886;2022-09-25T03:09:47;74969.28;;;-145.10;84.85
56334;BME280;42240;53.626;55.886;2022-09-25T03:11:21;74961.38;;;-145.10;84.74
56334;BME280;42240;53.626;55.886;2022-09-25T03:12:55;74949.50;;;-145.10;84.49
56334;BME280;42240;53.626;55.886;2022-09-25T03:14:28;74947.53;;;-145.10;84.57
56334;BME280;42240;53.626;55.886;2022-09-25T03:16:02;74947.53;;;-145.10;84.89
56334;BME280;42240;53.626;55.886;2022-09-25T03:17:36;74947.53;;;-145.10;84.79
56334;BME280;42240;53.626;55.886;2022-09-25T03:19:10;74963.34;;;-145.10;85.27
56334;BME280;42240;53.626;55.886;2022-09-25T03:20:43;74955.44;;;-145.10;85.70
56334;BME280;42240;53.626;55.886;2022-09-25T03:22:16;74947.53;;;-145.10;86.24
56334;BME280;42240;53.626;55.886;2022-09-25T03:23:53;74951.50;;;-145.10;86.73
56334;BME280;42240;53.626;55.886;2022-09-25T03:25:28;74937.66;;;-145.10;86.21
56334;BME280;42240;53.626;55.886;2022-09-25T03:27:01;74931.72;;;-145.10;86.22
56334;BME280;42240;53.626;55.886;2022-09-25T03:28:34;74939.63;;;-145.10;86.87
56334;BME280;42240;53.626;55.886;2022-09-25T03:30:07;74941.59;;;-145.10;87.42
56334;BME280;42240;53.626;55.886;2022-09-25T03:31:40;74947.53;;;-145.10;88.14
56334;BME280;42240;53.626;55.886;2022-09-25T03:33:16;74935.69;;;-145.10;88.04
56334;BME280;42240;53.626;55.886;2022-09-25T03:34:49;74931.72;;;-145.10;87.96
56334;BME280;42240;53.626;55.886;2022-09-25T03:36:22;74927.78;;;-145.10;87.66
56334;BME280;42240;53.626;55.886;2022-09-25T03:37:55;74925.78;;;-145.10;87.94
56334;BME280;42240;53.626;55.886;2022-09-25T03:39:29;74921.84;;;-145.10;88.32
56334;BME280;42240;53.626;55.886;2022-09-25T03:41:02;74915.91;;;-145.10;88.39
56334;BME280;42240;53.626;55.886;2022-09-25T03:42:39;74900.09;;;-145.10;88.11
56334;BME280;42240;53.626;55.886;2022-09-25T03:44:14;74888.25;;;-145.10;87.99
56334;BME280;42240;53.626;55.886;2022-09-25T03:45:47;74880.34;;;-145.10;88.26
56334;BME280;42240;53.626;55.886;2022-09-25T03:47:20;74872.44;;;-145.10;88.24
56334;BME280;42240;53.626;55.886;2022-09-25T03:48:53;74860.56;;;-145.10;88.45
56334;BME280;42240;53.626;55.886;2022-09-25T03:50:26;74834.88;;;-145.10;87.82
56334;BME280;42240;53.626;55.886;2022-09-25T03:51:59;74815.09;;;-145.10;87.46
56334;BME280;42240;53.626;55.886;2022-09-25T03:53:32;74809.19;;;-145.10;87.09
56334;BME280;42240;53.626;55.886;2022-09-25T03:55:05;74803.25;;;-145.10;86.95
56334;BME280;42240;53.626;55.886;2022-09-25T03:56:38;74793.38;;;-145.10;86.84
56334;BME280;42240;53.626;55.886;2022-09-25T03:58:11;74785.47;;;-145.10;87.17
56334;BME280;42240;53.626;55.886;2022-09-25T03:59:46;74785.47;;;-145.10;87.18
56334;BME280;42240;53.626;55.886;2022-09-25T04:01:19;74777.56;;;-145.10;87.06
56334;BME280;42240;53.626;55.886;2022-09-25T04:02:52;74763.72;;;-145.10;87.12
56334;BME280;42240;53.626;55.886;2022-09-25T04:04:24;74757.78;;;-145.10;87.09
56334;BME280;42240;53.626;55.886;2022-09-25T04:05:58;74753.84;;;-145.10;87.12
56334;BME280;42240;53.626;55.886;2022-09-25T04:07:31;74759.75;;;-145.10;87.03
56334;BME280;42240;53.626;55.886;2022-09-25T04:09:03;74741.97;;;-145.10;86.73
56334;BME280;42240;53.626;55.886;2022-09-25T04:10:36;74738.03;;;-145.10;86.38
56334;BME280;42240;53.626;55.886;2022-09-25T04:12:10;74738.03;;;-145.10;86.31
56334;BME280;42240;53.626;55.886;2022-09-25T04:13:42;74730.13;;;-145.10;86.39
56334;BME280;42240;53.626;55.886;2022-09-25T04:15:15;74734.06;;;-145.10;86.15
56334;BME280;42240;53.626;55.886;2022-09-25T04:16:49;74730.13;;;-145.10;86.28
56334;BME280;42240;53.626;55.886;2022-09-25T04:18:23;74726.16;;;-145.10;86.07
56334;BME280;42240;53.626;55.886;2022-09-25T04:19:56;74736.06;;;-145.10;86.45
56334;BME280;42240;53.626;55.886;2022-09-25T04:21:29;74728.16;;;-145.10;86.49
56334;BME280;42240;53.626;55.886;2022-09-25T04:23:02;74718.25;;;-145.10;86.41
56334;BME280;42240;53.626;55.886;2022-09-25T04:24:34;74712.34;;;-145.10;86.23
56334;BME280;42240;53.626;55.886;2022-09-25T04:26:19;74716.28;;;-145.10;86.55
56334;BME280;42240;53.626;55.886;2022-09-25T04:27:53;74732.09;;;-145.10;87.16
56334;BME280;42240;53.626;55.886;2022-09-25T04:29:29;74747.91;;;-145.10;88.13
56334;BME280;42240;53.626;55.886;2022-09-25T04:31:03;74745.94;;;-145.10;88.46
56334;BME280;42240;53.626;55.886;2022-09-25T04:32:36;74741.97;;;-145.10;88.18
56334;BME280;42240;53.626;55.886;2022-09-25T04:34:27;74724.19;;;-145.10;88.52
56334;BME280;42240;53.626;55.886;2022-09-25T04:36:00;74726.16;;;-145.10;88.94
56334;BME280;42240;53.626;55.886;2022-09-25T04:37:33;74718.25;;;-145.10;89.30
56334;BME280;42240;53.626;55.886;2022-09-25T04:39:06;74716.28;;;-145.10;88.88
56334;BME280;42240;53.626;55.886;2022-09-25T04:40:39;74714.31;;;-145.10;89.18
56334;BME280;42240;53.626;55.886;2022-09-25T04:42:12;74708.38;;;-145.10;89.38
56334;BME280;42240;53.626;55.886;2022-09-25T04:43:45;74704.44;;;-145.10;89.75
56334;BME280;42240;53.626;55.886;2022-09-25T04:45:18;74706.41;;;-145.10;90.06
56334;BME280;42240;53.626;55.886;2022-09-25T04:46:51;74704.44;;;-145.10;90.25
56334;BME280;42240;53.626;55.886;2022-09-25T04:48:23;74702.44;;;-145.10;90.77
56334;BME280;42240;53.626;55.886;2022-09-25T04:49:56;74684.66;;;-145.10;91.12
56334;BME280;42240;53.626;55.886;2022-09-25T04:51:29;74688.63;;;-145.10;91.33
56334;BME280;42240;53.626;55.886;2022-09-25T04:53:02;74676.75;;;-145.10;91.95
56334;BME280;42240;53.626;55.886;2022-09-25T04:54:35;74676.75;;;-145.10;92.17
56334;BME280;42240;53.626;55.886;2022-09-25T04:56:07;74670.81;;;-145.10;92.56
56334;BME280;42240;53.626;55.886;2022-09-25T04:57:50;74678.72;;;-145.10;92.89
56334;BME280;42240;53.626;55.886;2022-09-25T04:59:30;74678.72;;;-145.10;93.01
56334;BME280;42240;53.626;55.886;2022-09-25T05:01:03;74680.72;;;-145.10;93.18
56334;BME280;42240;53.626;55.886;2022-09-25T05:02:37;74686.63;;;-145.10;93.21
56334;BME280;42240;53.626;55.886;2022-09-25T05:04:10;74678.72;;;-145.10;93.18
56334;BME280;42240;53.626;55.886;2022-09-25T05:05:43;74658.97;;;-145.10;93.01
56334;BME280;42240;53.626;55.886;2022-09-25T05:07:15;74655.00;;;-145.10;92.37
56334;BME280;42240;53.626;55.886;2022-09-25T05:08:48;74639.19;;;-145.10;92.49
56334;BME280;42240;53.626;55.886;2022-09-25T05:10:22;74643.16;;;-145.10;92.54
56334;BME280;42240;53.626;55.886;2022-09-25T05:11:55;74647.09;;;-145.10;92.67
56334;BME280;42240;53.626;55.886;2022-09-25T05:13:28;74625.38;;;-145.10;92.84
56334;BME280;42240;53.626;55.886;2022-09-25T05:15:01;74621.41;;;-145.10;92.92
56334;BME280;42240;53.626;55.886;2022-09-25T05:16:34;74623.38;;;-145.10;93.18
56334;BME280;42240;53.626;55.886;2022-09-25T05:18:17;74595.72;;;-145.10;93.10
56334;BME280;42240;53.626;55.886;2022-09-25T05:19:50;74572.00;;;-145.10;92.76
56334;BME280;42240;53.626;55.886;2022-09-25T05:21:23;74550.25;;;-145.10;92.71
56334;BME280;42240;53.626;55.886;2022-09-25T05:22:57;74544.34;;;-145.10;93.24
56334;BME280;42240;53.626;55.886;2022-09-25T05:24:31;74552.25;;;-145.10;93.47
56334;BME280;42240;53.626;55.886;2022-09-25T05:26:03;74589.78;;;-145.10;93.26
56334;BME280;42240;53.626;55.886;2022-09-25T05:27:36;74579.91;;;-145.10;93.13
56334;BME280;42240;53.626;55.886;2022-09-25T05:29:09;74585.84;;;-145.10;92.94
56334;BME280;42240;53.626;55.886;2022-09-25T05:30:42;74591.78;;;-145.10;92.50
56334;BME280;42240;53.626;55.886;2022-09-25T05:32:15;74597.69;;;-145.10;92.74
56334;BME280;42240;53.626;55.886;2022-09-25T05:33:50;74591.78;;;-145.10;92.70
56334;BME280;42240;53.626;55.886;2022-09-25T05:35:24;74595.72;;;-145.10;92.54
56334;BME280;42240;53.626;55.886;2022-09-25T05:36:57;74587.81;;;-145.10;92.57
56334;BME280;42240;53.626;55.886;2022-09-25T05:38:33;74589.78;;;-145.10;92.54
56334;BME280;42240;53.626;55.886;2022-09-25T05:40:06;74579.91;;;-145.10;92.90
56334;BME280;42240;53.626;55.886;2022-09-25T05:41:39;74599.69;;;-145.10;93.34
56334;BME280;42240;53.626;55.886;2022-09-25T05:43:12;74587.81;;;-145.10;93.58
56334;BME280;42240;53.626;55.886;2022-09-25T05:44:45;74587.81;;;-145.10;93.59
56334;BME280;42240;53.626;55.886;2022-09-25T05:46:18;74591.78;;;-145.10;93.55
56334;BME280;42240;53.626;55.886;2022-09-25T05:48:00;74595.72;;;-145.10;93.71
56334;BME280;42240;53.626;55.886;2022-09-25T05:49:33;74593.75;;;-145.10;94.01
56334;BME280;42240;53.626;55.886;2022-09-25T05:51:06;74601.66;;;-145.10;94.37
56334;BME280;42240;53.626;55.886;2022-09-25T05:52:39;74599.69;;;-145.10;94.46
56334;BME280;42240;53.626;55.886;2022-09-25T05:54:12;74603.63;;;-145.10;94.34
56334;BME280;42240;53.626;55.886;2022-09-25T05:56:03;74585.84;;;-145.10;94.37
56334;BME280;42240;53.626;55.886;2022-09-25T05:57:36;74587.81;;;-145.10;94.88
56334;BME280;42240;53.626;55.886;2022-09-25T05:59:09;74591.78;;;-145.10;94.99
56334;BME280;42240;53.626;55.886;2022-09-25T06:00:42;74577.94;;;-145.10;94.97
56334;BME280;42240;53.626;55.886;2022-09-25T06:02:15;74558.16;;;-145.10;95.05
56334;BME280;42240;53.626;55.886;2022-09-25T06:03:48;74556.19;;;-145.10;94.80
56334;BME280;42240;53.626;55.886;2022-09-25T06:05:21;74560.16;;;-145.10;94.85
56334;BME280;42240;53.626;55.886;2022-09-25T06:06:54;74562.13;;;-145.10;94.81
56334;BME280;42240;53.626;55.886;2022-09-25T06:08:27;74568.06;;;-145.10;94.80
56334;BME280;42240;53.626;55.886;2022-09-25T06:10:02;74552.25;;;-145.10;94.97
56334;BME280;42240;53.626;55.886;2022-09-25T06:11:35;74566.06;;;-145.10;95.09
56334;BME280;42240;53.626;55.886;2022-09-25T06:13:08;74558.16;;;-145.10;95.34
56334;BME280;42240;53.626;55.886;2022-09-25T06:14:40;74554.22;;;-145.10;95.38
56334;BME280;42240;53.626;55.886;2022-09-25T06:16:14;74572.00;;;-145.10;95.66
56334;BME280;42240;53.626;55.886;2022-09-25T06:17:50;74573.97;;;-145.10;95.76
56334;BME280;42240;53.626;55.886;2022-09-25T06:19:23;74566.06;;;-145.10;96.04
56334;BME280;42240;53.626;55.886;2022-09-25T06:21:00;74552.25;;;-145.10;96.21
56334;BME280;42240;53.626;55.886;2022-09-25T06:22:33;74556.19;;;-145.10;96.44
56334;BME280;42240;53.626;55.886;2022-09-25T06:24:07;74536.44;;;-145.10;96.83
56334;BME280;42240;53.626;55.886;2022-09-25T06:25:39;74528.53;;;-145.10;96.87
56334;BME280;42240;53.626;55.886;2022-09-25T06:27:12;74524.56;;;-145.10;97.12
56334;BME280;42240;53.626;55.886;2022-09-25T06:28:45;74528.53;;;-145.10;97.12
56334;BME280;42240;53.626;55.886;2022-09-25T06:30:18;74530.50;;;-145.10;97.23
56334;BME280;42240;53.626;55.886;2022-09-25T06:31:51;74528.53;;;-145.10;97.40
56334;BME280;42240;53.626;55.886;2022-09-25T06:33:24;74532.47;;;-145.10;97.31
56334;BME280;42240;53.626;55.886;2022-09-25T06:34:57;74528.53;;;-145.10;97.45
56334;BME280;42240;53.626;55.886;2022-09-25T06:36:29;74524.56;;;-145.10;97.52
56334;BME280;42240;53.626;55.886;2022-09-25T06:38:03;74522.59;;;-145.10;97.51
56334;BME280;42240;53.626;55.886;2022-09-25T06:39:36;74514.69;;;-145.10;97.55
56334;BME280;42240;53.626;55.886;2022-09-25T06:41:09;74508.75;;;-145.10;97.59
56334;BME280;42240;53.626;55.886;2022-09-25T06:42:42;74506.78;;;-145.10;97.56
56334;BME280;42240;53.626;55.886;2022-09-25T06:44:17;74487.03;;;-145.10;97.60
56334;BME280;42240;53.626;55.886;2022-09-25T06:45:50;74477.13;;;-145.10;97.50
56334;BME280;42240;53.626;55.886;2022-09-25T06:47:22;74465.28;;;-145.10;97.31
56334;BME280;42240;53.626;55.886;2022-09-25T06:48:58;74457.38;;;-145.10;97.04
56334;BME280;42240;53.626;55.886;2022-09-25T06:50:41;74463.31;;;-145.10;97.04
56334;BME280;42240;53.626;55.886;2022-09-25T06:52:15;74449.47;;;-145.10;97.32
56334;BME280;42240;53.626;55.886;2022-09-25T06:53:51;74451.44;;;-145.10;97.40
56334;BME280;42240;53.626;55.886;2022-09-25T06:55:24;74437.63;;;-145.10;97.28
56334;BME280;42240;53.626;55.886;2022-09-25T06:56:57;74441.56;;;-145.10;97.48
56334;BME280;42240;53.626;55.886;2022-09-25T06:58:30;74429.72;;;-145.10;97.51
56334;BME280;42240;53.626;55.886;2022-09-25T07:00:03;74435.63;;;-145.10;97.42
56334;BME280;42240;53.626;55.886;2022-09-25T07:01:36;74425.75;;;-145.10;97.39
56334;BME280;42240;53.626;55.886;2022-09-25T07:03:09;74425.75;;;-145.10;96.99
56334;BME280;42240;53.626;55.886;2022-09-25T07:05:00;74411.91;;;-145.10;96.99
56334;BME280;42240;53.626;55.886;2022-09-25T07:06:33;74398.09;;;-145.10;96.95
56334;BME280;42240;53.626;55.886;2022-09-25T07:08:09;74400.06;;;-145.10;96.81
56334;BME280;42240;53.626;55.886;2022-09-25T07:09:41;74406.00;;;-145.10;96.70
56334;BME280;42240;53.626;55.886;2022-09-25T07:11:15;74406.00;;;-145.10;96.87
56334;BME280;42240;53.626;55.886;2022-09-25T07:12:48;74413.91;;;-145.10;97.06
56334;BME280;42240;53.626;55.886;2022-09-25T07:14:21;74415.88;;;-145.10;96.97
56334;BME280;42240;53.626;55.886;2022-09-25T07:16:00;74413.91;;;-145.10;96.87
56334;BME280;42240;53.626;55.886;2022-09-25T07:17:33;74404.00;;;-145.10;97.03
56334;BME280;42240;53.626;55.886;2022-09-25T07:19:07;74402.03;;;-145.10;96.84
56334;BME280;42240;53.626;55.886;2022-09-25T07:20:40;74402.03;;;-145.10;96.98
56334;BME280;42240;53.626;55.886;2022-09-25T07:22:13;74398.09;;;-145.10;97.39
56334;BME280;42240;53.626;55.886;2022-09-25T07:23:50;74392.16;;;-145.10;97.28
56334;BME280;42240;53.626;55.886;2022-09-25T07:25:23;74394.13;;;-145.10;97.33
56334;BME280;42240;53.626;55.886;2022-09-25T07:26:55;74402.03;;;-145.10;97.53
56334;BME280;42240;53.626;55.886;2022-09-25T07:28:28;74409.94;;;-145.10;98.00
56334;BME280;42240;53.626;55.886;2022-09-25T07:30:01;74406.00;;;-145.10;98.22
56334;BME280;42240;53.626;55.886;2022-09-25T07:31:35;74404.00;;;-145.10;98.38
56334;BME280;42240;53.626;55.886;2022-09-25T07:33:10;74402.03;;;-145.10;98.36
56334;BME280;42240;53.626;55.886;2022-09-25T07:34:43;74413.91;;;-145.10;98.67
56334;BME280;42240;53.626;55.886;2022-09-25T07:36:17;74404.00;;;-145.10;98.65
56334;BME280;42240;53.626;55.886;2022-09-25T07:37:50;74409.94;;;-145.10;98.70
56334;BME280;42240;53.626;55.886;2022-09-25T07:39:22;74409.94;;;-145.10;98.68
56334;BME280;42240;53.626;55.886;2022-09-25T07:40:55;74411.91;;;-145.10;99.01
56334;BME280;42240;53.626;55.886;2022-09-25T07:42:29;74421.81;;;-145.10;99.11
56334;BME280;42240;53.626;55.886;2022-09-25T07:44:01;74417.84;;;-145.10;99.11
56334;BME280;42240;53.626;55.886;2022-09-25T07:45:54;74400.06;;;-145.10;99.14
56334;BME280;42240;53.626;55.886;2022-09-25T07:47:27;74382.28;;;-145.10;99.31
56334;BME280;42240;53.626;55.886;2022-09-25T07:49:00;74366.47;;;-145.10;99.48
56334;BME280;42240;53.626;55.886;2022-09-25T07:50:33;74352.63;;;-145.10;100.00
56334;BME280;42240;53.626;55.886;2022-09-25T07:52:05;74354.59;;;-145.10;100.00
56334;BME280;42240;53.626;55.886;2022-09-25T07:53:38;74356.59;;;-145.10;100.00
56334;BME280;42240;53.626;55.886;2022-09-25T07:55:12;74338.78;;;-145.10;100.00
56334;BME280;42240;53.626;55.886;2022-09-25T08:45:38;74149.06;;;-145.10;98.98
56334;BME280;42240;53.626;55.886;2022-09-25T08:47:31;74149.06;;;-145.10;98.40
56334;BME280;42240;53.626;55.886;2022-09-25T08:49:24;74164.88;;;-145.10;98.23
56334;BME280;42240;53.626;55.886;2022-09-25T08:50:59;74151.06;;;-145.10;98.33
56334;BME280;42240;53.626;55.886;2022-09-25T08:52:39;74156.97;;;-145.10;98.64
56334;BME280;42240;53.626;55.886;2022-09-25T08:54:25;74145.13;;;-145.10;98.71
56334;BME280;42240;53.626;55.886;2022-09-25T08:55:59;74164.88;;;-145.10;98.84
56334;BME280;42240;53.626;55.886;2022-09-25T08:57:49;74208.38;;;-145.10;99.13
56334;BME280;42240;53.626;55.886;2022-09-25T08:59:39;74176.75;;;-145.10;99.46
56334;BME280;42240;53.626;55.886;2022-09-25T09:01:23;74180.69;;;-145.10;99.55
56334;BME280;42240;53.626;55.886;2022-09-25T09:02:58;74172.78;;;-145.10;99.61
56334;BME280;42240;53.626;55.886;2022-09-25T09:04:36;74158.97;;;-145.10;99.72
56334;BME280;42240;53.626;55.886;2022-09-25T09:06:14;74145.13;;;-145.10;99.44
56334;BME280;42240;53.626;55.886;2022-09-25T09:07:58;74135.25;;;-145.10;99.19
56334;BME280;42240;53.626;55.886;2022-09-25T09:09:43;74153.03;;;-145.10;99.10
56334;BME280;42240;53.626;55.886;2022-09-25T09:11:27;74117.47;;;-145.10;99.27
56334;BME280;42240;53.626;55.886;2022-09-25T09:13:47;74125.38;;;-145.10;99.16
56334;BME280;42240;53.626;55.886;2022-09-25T09:18:47;74123.38;;;-145.10;99.19
56334;BME280;42240;53.626;55.886;2022-09-25T09:22:23;74125.38;;;-145.10;98.80
56334;BME280;42240;53.626;55.886;2022-09-25T09:25:54;74155.00;;;-145.10;99.83
56334;BME280;42240;53.626;55.886;2022-09-25T09:27:57;74174.78;;;-145.10;100.00
56334;BME280;42240;53.626;55.886;2022-09-25T09:33:50;74156.97;;;-145.10;100.00
56334;BME280;42240;53.626;55.886;2022-09-25T09:39:26;74172.78;;;-145.10;100.00
56334;BME280;42240;53.626;55.886;2022-09-25T09:48:36;74186.63;;;-145.10;100.00
56334;BME280;42240;53.626;55.886;2022-09-25T09:50:22;74180.69;;;-145.10;100.00
56334;BME280;42240;53.626;55.886;2022-09-25T09:53:50;74186.63;;;-145.10;100.00
56334;BME280;42240;53.626;55.886;2022-09-25T09:55:41;74180.69;;;-145.10;100.00
56334;BME280;42240;53.626;55.886;2022-09-25T09:57:26;74182.69;;;-145.10;100.00